createdAt,value
2018-07-23T00:01:15.136Z,98317.31
2018-07-23T00:03:43.494Z,98318.44
2018-07-23T00:06:11.882Z,98320.05
2018-07-23T00:08:40.163Z,98321.48
2018-07-23T00:11:08.481Z,98320.53
2018-07-23T00:13:36.744Z,98321.08
2018-07-23T00:16:05.104Z,98321.44
2018-07-23T00:18:33.301Z,98321.98
2018-07-23T00:21:01.747Z,98320.65
2018-07-23T00:23:30.049Z,98319.19
2018-07-23T00:25:58.335Z,98314.48
2018-07-23T00:28:26.670Z,98313.47
2018-07-23T00:30:54.969Z,98313.69
2018-07-23T00:33:23.281Z,98319.19
2018-07-23T00:35:51.611Z,98317.28
2018-07-23T00:38:19.938Z,98312.62
2018-07-23T00:40:48.236Z,98320.53
2018-07-23T00:43:16.611Z,98319.89
2018-07-23T00:45:45.006Z,98317.98
2018-07-23T00:48:13.279Z,98317.98
2018-07-23T00:50:41.537Z,98311.69
2018-07-23T00:53:09.797Z,98312.78
2018-07-23T00:55:38.036Z,98308.14
2018-07-23T00:58:06.345Z,98303.43
2018-07-23T01:00:34.564Z,98308.56
2018-07-23T01:03:05.671Z,98314.24
2018-07-23T01:05:34.723Z,98309.27
2018-07-23T01:08:03.124Z,98302.13
2018-07-23T01:10:31.482Z,98312.00
2018-07-23T01:12:59.710Z,98307.02
2018-07-23T01:15:28.110Z,98310.81
2018-07-23T01:17:56.367Z,98310.95
2018-07-23T01:20:24.743Z,98307.69
2018-07-23T01:22:53.082Z,98312.56
2018-07-23T01:25:21.313Z,98308.28
2018-07-23T01:27:49.710Z,98308.55
2018-07-23T01:30:18.007Z,98317.64
2018-07-23T01:32:46.327Z,98312.50
2018-07-23T01:35:14.687Z,98319.09
2018-07-23T01:37:42.992Z,98318.07
2018-07-23T01:40:11.309Z,98314.84
2018-07-23T01:42:39.626Z,98317.17
2018-07-23T01:45:08.013Z,98325.57
2018-07-23T01:47:36.290Z,98316.83
2018-07-23T01:50:04.660Z,98321.69
2018-07-23T01:52:32.947Z,98317.83
2018-07-23T01:55:01.533Z,98319.56
2018-07-23T01:57:29.804Z,98323.23
2018-07-23T01:59:58.197Z,98321.12
2018-07-23T02:02:26.600Z,98325.63
2018-07-23T02:04:54.934Z,98324.53
2018-07-23T02:07:23.256Z,98328.14
2018-07-23T02:09:51.554Z,98321.55
2018-07-23T02:12:19.974Z,98328.44
2018-07-23T02:14:48.259Z,98328.11
2018-07-23T02:17:16.584Z,98317.42
2018-07-23T02:19:44.897Z,98319.37
2018-07-23T02:22:13.379Z,98316.25
2018-07-23T02:24:41.679Z,98324.08
2018-07-23T02:27:09.954Z,98320.80
2018-07-23T02:29:38.299Z,98326.50
2018-07-23T02:32:06.564Z,98319.92
2018-07-23T02:34:34.930Z,98320.62
2018-07-23T02:37:03.205Z,98325.48
2018-07-23T02:39:31.538Z,98329.63
2018-07-23T02:41:59.797Z,98334.77
2018-07-23T02:44:28.490Z,98333.25
2018-07-23T02:46:57.082Z,98330.48
2018-07-23T02:49:25.333Z,98333.66
2018-07-23T02:51:53.625Z,98330.14
2018-07-23T02:54:22.218Z,98338.87
2018-07-23T02:56:50.604Z,98329.78
2018-07-23T02:59:18.898Z,98339.02
2018-07-23T03:01:47.175Z,98331.48
2018-07-23T03:04:15.655Z,98336.56
2018-07-23T03:06:43.977Z,98335.72
2018-07-23T03:09:12.282Z,98341.03
2018-07-23T03:11:40.587Z,98341.95
2018-07-23T03:14:08.945Z,98341.47
2018-07-23T03:16:38.684Z,98346.76
2018-07-23T03:19:06.937Z,98348.09
2018-07-23T03:21:35.249Z,98351.94
2018-07-23T03:24:03.598Z,98352.20
2018-07-23T03:26:31.887Z,98355.05
2018-07-23T03:29:00.223Z,98353.23
2018-07-23T03:31:28.549Z,98350.03
2018-07-23T03:33:58.004Z,98345.55
2018-07-23T03:36:26.374Z,98345.22
2018-07-23T03:38:54.657Z,98359.91
2018-07-23T03:41:23.037Z,98350.96
2018-07-23T03:43:51.333Z,98359.78
2018-07-23T03:46:19.604Z,98360.47
2018-07-23T03:48:47.966Z,98359.59
2018-07-23T03:51:16.321Z,98360.27
2018-07-23T03:53:44.671Z,98359.31
2018-07-23T03:56:12.918Z,98362.27
2018-07-23T03:58:41.347Z,98366.19
2018-07-23T04:01:09.647Z,98364.91
2018-07-23T04:03:38.224Z,98371.22
2018-07-23T04:06:06.849Z,98372.01
2018-07-23T04:08:35.063Z,98375.44
2018-07-23T04:11:03.429Z,98376.34
2018-07-23T04:13:31.961Z,98385.48
2018-07-23T04:16:00.363Z,98384.42
2018-07-23T04:18:28.657Z,98388.28
2018-07-23T04:20:56.981Z,98392.66
2018-07-23T04:23:25.253Z,98392.44
2018-07-23T04:25:53.531Z,98391.38
2018-07-23T04:28:22.010Z,98397.80
2018-07-23T04:30:50.302Z,98402.55
2018-07-23T04:33:18.658Z,98401.45
2018-07-23T04:35:46.939Z,98397.08
2018-07-23T04:38:15.237Z,98396.59
2018-07-23T04:40:44.198Z,98401.45
2018-07-23T04:43:12.491Z,98406.03
2018-07-23T04:45:40.758Z,98405.94
2018-07-23T04:48:09.127Z,98395.53
2018-07-23T04:50:37.501Z,98403.95
2018-07-23T04:53:06.890Z,98408.45
2018-07-23T04:55:35.151Z,98407.92
2018-07-23T04:58:03.511Z,98410.05
2018-07-23T05:00:31.811Z,98412.26
2018-07-23T05:03:00.470Z,98408.95
2018-07-23T05:05:28.723Z,98409.12
2018-07-23T05:07:58.654Z,98416.40
2018-07-23T05:10:26.974Z,98417.14
2018-07-23T05:12:55.356Z,98425.30
2018-07-23T05:15:23.713Z,98423.64
2018-07-23T05:17:51.973Z,98421.34
2018-07-23T05:20:20.254Z,98424.10
2018-07-23T05:22:48.682Z,98428.17
2018-07-23T05:25:17.080Z,98432.48
2018-07-23T05:27:45.421Z,98439.41
2018-07-23T05:30:13.775Z,98432.35
2018-07-23T05:32:42.140Z,98432.39
2018-07-23T05:35:10.530Z,98433.50
2018-07-23T05:37:40.085Z,98438.61
2018-07-23T05:40:08.398Z,98438.95
2018-07-23T05:42:36.662Z,98441.44
2018-07-23T05:45:05.551Z,98438.42
2018-07-23T05:47:33.846Z,98446.86
2018-07-23T05:50:02.162Z,98440.25
2018-07-23T05:52:30.538Z,98445.36
2018-07-23T05:54:58.833Z,98447.36
2018-07-23T05:57:27.113Z,98451.41
2018-07-23T05:59:55.417Z,98447.55
2018-07-23T06:02:23.781Z,98447.93
2018-07-23T06:04:52.068Z,98445.06
2018-07-23T06:07:20.374Z,98451.15
2018-07-23T06:09:48.641Z,98452.70
2018-07-23T06:12:16.914Z,98454.69
2018-07-23T06:14:45.299Z,98456.81
2018-07-23T06:17:13.751Z,98463.50
2018-07-23T06:19:42.049Z,98457.48
2018-07-23T06:22:10.349Z,98468.03
2018-07-23T06:24:38.700Z,98463.89
2018-07-23T06:27:07.043Z,98458.59
2018-07-23T06:29:35.284Z,98458.27
2018-07-23T06:32:03.593Z,98459.00
2018-07-23T06:34:31.851Z,98462.27
2018-07-23T06:37:00.117Z,98459.05
2018-07-23T06:39:28.560Z,98465.35
2018-07-23T06:41:56.883Z,98462.64
2018-07-23T06:44:25.241Z,98465.98
2018-07-23T06:46:53.568Z,98470.72
2018-07-23T06:49:21.915Z,98464.11
2018-07-23T06:51:50.314Z,98463.68
2018-07-23T06:54:18.575Z,98470.77
2018-07-23T06:56:46.982Z,98465.38
2018-07-23T06:59:15.339Z,98475.12
2018-07-23T07:01:43.589Z,98475.11
2018-07-23T07:04:11.805Z,98477.69
2018-07-23T07:06:40.219Z,98473.79
2018-07-23T07:09:09.858Z,98469.23
2018-07-23T07:11:38.197Z,98474.79
2018-07-23T07:14:07.055Z,98475.84
2018-07-23T07:16:35.281Z,98477.98
2018-07-23T07:19:03.592Z,98476.56
2018-07-23T07:21:31.953Z,98475.17
2018-07-23T07:24:00.289Z,98484.27
2018-07-23T07:26:28.590Z,98487.58
2018-07-23T07:28:56.836Z,98484.03
2018-07-23T07:31:25.130Z,98480.71
2018-07-23T07:33:53.389Z,98485.11
2018-07-23T07:36:21.711Z,98485.64
2018-07-23T07:38:50.029Z,98489.93
2018-07-23T07:41:18.410Z,98485.52
2018-07-23T07:43:46.683Z,98485.45
2018-07-23T07:46:14.992Z,98495.46
2018-07-23T07:48:43.260Z,98489.51
2018-07-23T07:51:11.652Z,98497.74
2018-07-23T07:53:39.955Z,98498.58
2018-07-23T07:56:08.314Z,98489.80
2018-07-23T07:58:36.574Z,98493.64
2018-07-23T08:01:04.945Z,98489.60
2018-07-23T08:03:33.291Z,98485.58
2018-07-23T08:06:01.568Z,98489.08
2018-07-23T08:08:30.851Z,98483.22
2018-07-23T08:10:59.143Z,98486.11
2018-07-23T08:13:27.555Z,98484.81
2018-07-23T08:15:55.844Z,98485.81
2018-07-23T08:18:24.130Z,98492.35
2018-07-23T08:20:52.447Z,98490.97
2018-07-23T08:23:20.761Z,98496.92
2018-07-23T08:25:49.000Z,98499.47
2018-07-23T08:28:17.267Z,98501.61
2018-07-23T08:30:45.556Z,98505.16
2018-07-23T08:33:13.826Z,98502.42
2018-07-23T08:35:42.136Z,98507.00
2018-07-23T08:38:10.420Z,98498.61
2018-07-23T08:40:38.671Z,98511.41
2018-07-23T08:43:07.203Z,98504.95
2018-07-23T08:45:35.470Z,98505.42
2018-07-23T08:48:03.735Z,98510.07
2018-07-23T08:50:32.073Z,98511.23
2018-07-23T08:53:00.400Z,98512.99
2018-07-23T08:55:28.807Z,98510.95
2018-07-23T08:57:57.310Z,98514.39
2018-07-23T09:00:25.678Z,98512.22
2018-07-23T09:02:54.063Z,98514.34
2018-07-23T09:05:22.399Z,98509.50
2018-07-23T09:07:50.722Z,98513.19
2018-07-23T09:10:19.123Z,98513.74
2018-07-23T09:12:47.426Z,98513.27
2018-07-23T09:15:15.744Z,98508.18
2018-07-23T09:17:44.077Z,98510.14
2018-07-23T09:20:12.378Z,98505.12
2018-07-23T09:22:40.627Z,98500.65
2018-07-23T09:25:08.950Z,98510.21
2018-07-23T09:27:37.218Z,98506.19
2018-07-23T09:30:06.573Z,98507.20
2018-07-23T09:32:34.912Z,98505.39
2018-07-23T09:35:03.340Z,98515.59
2018-07-23T09:37:31.675Z,98513.45
2018-07-23T09:39:59.945Z,98507.45
2018-07-23T09:42:28.261Z,98510.61
2018-07-23T09:44:56.771Z,98510.50
2018-07-23T09:47:25.062Z,98506.45
2018-07-23T09:49:53.331Z,98496.79
2018-07-23T09:52:21.591Z,98499.41
2018-07-23T09:54:49.885Z,98504.17
2018-07-23T09:57:18.283Z,98497.97
2018-07-23T09:59:46.539Z,98495.84
2018-07-23T10:02:14.851Z,98502.89
2018-07-23T10:04:43.172Z,98498.17
2018-07-23T10:07:11.434Z,98497.88
2018-07-23T10:09:39.733Z,98500.28
2018-07-23T10:12:08.155Z,98494.81
2018-07-23T10:14:36.484Z,98499.37
2018-07-23T10:17:04.983Z,98492.70
2018-07-23T10:19:33.343Z,98494.19
2018-07-23T10:22:01.673Z,98495.97
2018-07-23T10:24:29.916Z,98492.05
2018-07-23T10:26:58.178Z,98488.09
2018-07-23T10:29:26.538Z,98484.58
2018-07-23T10:31:54.846Z,98486.27
2018-07-23T10:34:23.150Z,98490.55
2018-07-23T10:36:51.459Z,98482.53
2018-07-23T10:39:19.780Z,98486.36
2018-07-23T10:41:48.064Z,98484.76
2018-07-23T10:44:16.367Z,98483.87
2018-07-23T10:46:44.760Z,98477.56
2018-07-23T10:49:13.133Z,98482.67
2018-07-23T10:51:41.445Z,98481.94
2018-07-23T10:54:09.788Z,98479.50
2018-07-23T10:56:38.204Z,98471.33
2018-07-23T10:59:06.563Z,98477.25
2018-07-23T11:01:34.857Z,98476.14
2018-07-23T11:04:03.234Z,98476.45
2018-07-23T11:06:31.513Z,98478.52
2018-07-23T11:08:59.895Z,98473.68
2018-07-23T11:11:28.196Z,98480.81
2018-07-23T11:13:56.520Z,98477.69
2018-07-23T11:16:24.779Z,98467.23
2018-07-23T11:18:53.408Z,98476.32
2018-07-23T11:21:21.745Z,98474.25
2018-07-23T11:23:50.067Z,98477.80
2018-07-23T11:26:18.451Z,98470.69
2018-07-23T11:28:46.735Z,98469.64
2018-07-23T11:31:15.012Z,98470.01
2018-07-23T11:33:43.300Z,98463.59
2018-07-23T11:36:11.712Z,98461.89
2018-07-23T11:38:40.004Z,98455.03
2018-07-23T11:41:08.316Z,98458.95
2018-07-23T11:43:36.602Z,98453.67
2018-07-23T11:46:05.019Z,98445.87
2018-07-23T11:48:33.353Z,98455.23
2018-07-23T11:51:01.719Z,98444.02
2018-07-23T11:53:30.111Z,98444.04
2018-07-23T11:55:58.388Z,98450.13
2018-07-23T11:58:26.905Z,98446.47
2018-07-23T12:00:55.295Z,98446.33
2018-07-23T12:03:23.619Z,98444.14
2018-07-23T12:05:52.186Z,98442.23
2018-07-23T12:08:20.514Z,98437.16
2018-07-23T12:10:48.821Z,98440.89
2018-07-23T12:13:17.140Z,98438.23
2018-07-23T12:15:45.568Z,98441.11
2018-07-23T12:18:13.859Z,98440.50
2018-07-23T12:20:42.215Z,98444.60
2018-07-23T12:23:10.552Z,98431.88
2018-07-23T12:25:38.799Z,98431.06
2018-07-23T12:28:07.252Z,98426.41
2018-07-23T12:30:35.614Z,98426.75
2018-07-23T12:33:04.099Z,98425.39
2018-07-23T12:35:32.477Z,98419.02
2018-07-23T12:38:02.523Z,98418.86
2018-07-23T12:40:31.000Z,98421.67
2018-07-23T12:42:59.327Z,98417.91
2018-07-23T12:45:27.679Z,98418.66
2018-07-23T12:47:56.031Z,98418.52
2018-07-23T12:50:24.499Z,98424.20
2018-07-23T12:52:52.904Z,98423.52
2018-07-23T12:55:21.369Z,98419.08
2018-07-23T12:57:50.275Z,98412.06
2018-07-23T13:00:18.860Z,98418.50
2018-07-23T13:02:47.463Z,98413.52
2018-07-23T13:05:15.730Z,98415.42
2018-07-23T13:07:44.011Z,98416.55
2018-07-23T13:10:12.442Z,98416.44
2018-07-23T13:12:40.742Z,98413.53
2018-07-23T13:15:09.056Z,98410.11
2018-07-23T13:17:37.589Z,98408.89
2018-07-23T13:20:05.956Z,98404.69
2018-07-23T13:22:34.369Z,98404.52
2018-07-23T13:25:02.805Z,98402.23
2018-07-23T13:27:31.282Z,98403.58
2018-07-23T13:29:59.763Z,98400.75
2018-07-23T13:32:28.255Z,98409.54
2018-07-23T13:34:56.516Z,98404.44
2018-07-23T13:37:25.010Z,98404.78
2018-07-23T13:39:54.435Z,98396.15
2018-07-23T13:42:22.760Z,98395.99
2018-07-23T13:44:51.351Z,98395.60
2018-07-23T13:47:19.595Z,98387.83
2018-07-23T13:49:47.891Z,98386.47
2018-07-23T13:52:16.126Z,98382.15
2018-07-23T13:54:44.473Z,98377.91
2018-07-23T13:57:12.795Z,98375.77
2018-07-23T13:59:41.042Z,98372.85
2018-07-23T14:02:09.642Z,98377.54
2018-07-23T14:04:37.920Z,98372.28
2018-07-23T14:07:06.217Z,98369.20
2018-07-23T14:09:34.528Z,98363.86
2018-07-23T14:12:02.802Z,98364.13
2018-07-23T14:14:31.119Z,98364.78
2018-07-23T14:16:59.383Z,98357.17
2018-07-23T14:19:27.745Z,98352.66
2018-07-23T14:21:56.047Z,98347.59
2018-07-23T14:24:24.295Z,98350.54
2018-07-23T14:26:52.652Z,98341.38
2018-07-23T14:29:21.055Z,98346.16
2018-07-23T14:31:49.667Z,98340.84
2018-07-23T14:34:18.587Z,98343.38
2018-07-23T14:36:46.894Z,98334.59
2018-07-23T14:39:15.192Z,98341.95
2018-07-23T14:41:43.617Z,98344.30
2018-07-23T14:44:11.967Z,98331.33
2018-07-23T14:46:40.594Z,98333.09
2018-07-23T14:49:09.085Z,98329.19
2018-07-23T14:51:37.924Z,98330.42
2018-07-23T14:54:06.540Z,98324.58
2018-07-23T14:56:35.166Z,98318.78
2018-07-23T14:59:03.647Z,98329.13
2018-07-23T15:01:32.451Z,98315.01
2018-07-23T15:04:01.055Z,98322.59
2018-07-23T15:06:29.488Z,98321.05
2018-07-23T15:08:57.883Z,98309.58
2018-07-23T15:11:26.159Z,98307.86
2018-07-23T15:13:54.538Z,98316.37
2018-07-23T15:16:23.028Z,98314.52
2018-07-23T15:18:51.334Z,98308.78
2018-07-23T15:21:19.728Z,98314.41
2018-07-23T15:23:48.265Z,98312.70
2018-07-23T15:26:16.662Z,98311.00
2018-07-23T15:28:44.920Z,98310.79
2018-07-23T15:31:13.292Z,98304.95
2018-07-23T15:33:41.540Z,98307.44
2018-07-23T15:36:10.045Z,98300.68
2018-07-23T15:38:38.467Z,98307.78
2018-07-23T15:41:06.665Z,98313.59
2018-07-23T15:43:34.924Z,98317.19
2018-07-23T15:46:03.269Z,98308.72
2018-07-23T15:48:31.653Z,98317.34
2018-07-23T15:51:00.139Z,98314.94
2018-07-23T15:53:28.504Z,98309.81
2018-07-23T15:55:56.864Z,98305.14
2018-07-23T15:58:25.290Z,98308.53
2018-07-23T16:00:53.704Z,98304.70
2018-07-23T16:03:22.073Z,98301.67
2018-07-23T16:05:50.485Z,98302.81
2018-07-23T16:08:18.757Z,98293.91
2018-07-23T16:10:47.134Z,98297.98
2018-07-23T16:13:15.638Z,98293.51
2018-07-23T16:15:43.924Z,98293.98
2018-07-23T16:18:12.290Z,98297.16
2018-07-23T16:20:40.531Z,98304.16
2018-07-23T16:23:08.838Z,98295.91
2018-07-23T16:25:37.379Z,98293.87
2018-07-23T16:28:05.848Z,98285.09
2018-07-23T16:30:34.207Z,98282.41
2018-07-23T16:33:02.486Z,98281.91
2018-07-23T16:35:30.744Z,98288.70
2018-07-23T16:37:58.993Z,98284.00
2018-07-23T16:40:27.423Z,98279.37
2018-07-23T16:42:55.734Z,98274.08
2018-07-23T16:45:24.170Z,98276.13
2018-07-23T16:47:52.430Z,98276.44
2018-07-23T16:50:20.776Z,98282.24
2018-07-23T16:52:49.074Z,98272.55
2018-07-23T16:55:17.317Z,98276.23
2018-07-23T16:57:45.595Z,98276.05
2018-07-23T17:00:13.973Z,98282.59
2018-07-23T17:02:42.280Z,98281.50
2018-07-23T17:05:10.597Z,98285.31
2018-07-23T17:07:38.919Z,98281.53
2018-07-23T17:10:07.331Z,98285.03
2018-07-23T17:12:35.579Z,98282.64
2018-07-23T17:15:03.922Z,98285.25
2018-07-23T17:17:32.203Z,98287.31
2018-07-23T17:20:00.671Z,98289.63
2018-07-23T17:22:29.061Z,98285.23
2018-07-23T17:24:57.587Z,98286.77
2018-07-23T17:27:26.051Z,98286.29
2018-07-23T17:29:54.376Z,98286.99
2018-07-23T17:32:22.692Z,98292.66
2018-07-23T17:34:51.120Z,98293.13
2018-07-23T17:37:19.431Z,98287.30
2018-07-23T17:39:47.743Z,98292.39
2018-07-23T17:42:16.347Z,98285.59
2018-07-23T17:44:44.702Z,98285.95
2018-07-23T17:47:13.207Z,98285.13
2018-07-23T17:49:41.612Z,98281.81
2018-07-23T17:52:09.988Z,98288.11
2018-07-23T17:54:38.317Z,98292.31
2018-07-23T17:57:06.602Z,98294.98
2018-07-23T17:59:34.854Z,98295.84
2018-07-23T18:02:03.174Z,98295.58
2018-07-23T18:04:31.771Z,98295.44
2018-07-23T18:07:00.260Z,98293.20
2018-07-23T18:09:28.608Z,98300.52
2018-07-23T18:11:56.898Z,98305.15
2018-07-23T18:14:25.152Z,98301.34
2018-07-23T18:16:53.460Z,98304.78
2018-07-23T18:19:21.852Z,98307.77
2018-07-23T18:21:50.147Z,98298.79
2018-07-23T18:24:18.492Z,98308.84
2018-07-23T18:26:46.838Z,98311.94
2018-07-23T18:29:15.113Z,98311.92
2018-07-23T18:31:43.467Z,98311.56
2018-07-23T18:34:11.873Z,98319.47
2018-07-23T18:36:40.150Z,98314.67
2018-07-23T18:39:10.095Z,98319.38
2018-07-23T18:41:38.558Z,98326.20
2018-07-23T18:44:07.098Z,98315.23
2018-07-23T18:46:35.548Z,98324.05
2018-07-23T18:49:25.318Z,98329.34
2018-07-23T18:51:54.401Z,98326.70
2018-07-23T18:54:24.236Z,98318.70
2018-07-23T18:56:54.473Z,98325.84
2018-07-23T18:59:22.775Z,98334.01
2018-07-23T19:01:51.997Z,98331.73
2018-07-23T19:04:20.495Z,98329.49
2018-07-23T19:06:49.179Z,98335.28
2018-07-23T19:09:18.709Z,98340.17
2018-07-23T19:11:48.221Z,98341.54
2018-07-23T19:14:16.967Z,98348.55
2018-07-23T19:16:45.875Z,98353.84
2018-07-23T19:19:14.239Z,98350.65
2018-07-23T19:21:42.484Z,98359.40
2018-07-23T19:24:11.059Z,98358.17
2018-07-23T19:26:39.411Z,98358.13
2018-07-23T19:29:07.767Z,98360.52
2018-07-23T19:31:36.108Z,98360.28
2018-07-23T19:34:05.024Z,98362.56
2018-07-23T19:36:33.416Z,98363.61
2018-07-23T19:39:01.831Z,98361.98
2018-07-23T19:41:30.583Z,98366.66
2018-07-23T19:43:59.081Z,98369.95
2018-07-23T19:46:27.403Z,98370.39
2018-07-23T19:48:55.879Z,98377.14
2018-07-23T19:51:24.174Z,98372.66
2018-07-23T19:53:52.487Z,98377.05
2018-07-23T19:56:20.973Z,98374.59
2018-07-23T19:58:49.375Z,98379.08
2018-07-23T20:01:18.003Z,98378.80
2018-07-23T20:03:46.477Z,98381.04
2018-07-23T20:06:19.387Z,98380.88
2018-07-23T20:08:48.469Z,98381.70
2018-07-23T20:11:17.386Z,98371.45
2018-07-23T20:13:45.795Z,98376.31
2018-07-23T20:16:14.466Z,98375.80
2018-07-23T20:18:42.931Z,98375.13
2018-07-23T20:21:11.364Z,98384.87
2018-07-23T20:23:39.876Z,98387.50
2018-07-23T20:26:08.454Z,98380.74
2018-07-23T20:28:37.308Z,98384.95
2018-07-23T20:31:06.090Z,98379.00
2018-07-23T20:33:34.515Z,98384.55
2018-07-23T20:36:03.505Z,98381.09
2018-07-23T20:38:31.743Z,98370.07
2018-07-23T20:41:00.270Z,98373.88
2018-07-23T20:43:29.445Z,98365.59
2018-07-23T20:45:58.425Z,98376.30
2018-07-23T20:48:26.803Z,98373.28
2018-07-23T20:50:55.638Z,98378.91
2018-07-23T20:53:23.919Z,98369.50
2018-07-23T20:55:52.248Z,98376.48
2018-07-23T20:58:20.583Z,98371.98
2018-07-23T21:00:49.089Z,98370.15
2018-07-23T21:03:17.593Z,98367.87
2018-07-23T21:05:46.077Z,98365.19
2018-07-23T21:08:14.437Z,98362.44
2018-07-23T21:10:42.828Z,98365.94
2018-07-23T21:13:11.268Z,98372.52
2018-07-23T21:15:39.730Z,98376.02
2018-07-23T21:18:08.403Z,98373.18
2018-07-23T21:20:37.063Z,98373.48
2018-07-23T21:23:05.596Z,98372.25
2018-07-23T21:25:33.987Z,98373.74
2018-07-23T21:28:02.364Z,98373.74
2018-07-23T21:30:30.740Z,98368.48
2018-07-23T21:32:59.364Z,98369.03
2018-07-23T21:35:27.832Z,98370.87
2018-07-23T21:37:56.287Z,98366.89
2018-07-23T21:40:24.976Z,98366.65
2018-07-23T21:42:56.025Z,98369.83
2018-07-23T21:45:25.771Z,98369.45
2018-07-23T21:47:55.826Z,98377.02
2018-07-23T21:50:24.965Z,98375.63
2018-07-23T21:52:53.378Z,98365.56
2018-07-23T21:55:21.661Z,98366.41
2018-07-23T21:57:49.918Z,98371.36
2018-07-23T22:00:18.288Z,98374.12
2018-07-23T22:02:46.770Z,98376.37
2018-07-23T22:05:15.270Z,98375.55
2018-07-23T22:07:44.008Z,98375.12
2018-07-23T22:10:14.756Z,98383.87
2018-07-23T22:12:43.054Z,98377.30
2018-07-23T22:15:12.464Z,98373.11
2018-07-23T22:17:42.209Z,98370.52
2018-07-23T22:20:10.507Z,98367.25
2018-07-23T22:22:41.003Z,98369.95
2018-07-23T22:25:09.340Z,98371.09
2018-07-23T22:27:37.621Z,98363.41
2018-07-23T22:30:06.303Z,98369.91
2018-07-23T22:32:34.624Z,98373.48
2018-07-23T22:35:02.907Z,98371.20
2018-07-23T22:37:31.161Z,98370.55
2018-07-23T22:39:59.449Z,98362.88
2018-07-23T22:42:29.398Z,98368.48
2018-07-23T22:44:57.674Z,98367.27
2018-07-23T22:47:25.893Z,98366.39
2018-07-23T22:49:54.160Z,98368.79
2018-07-23T22:52:22.449Z,98359.27
2018-07-23T22:54:50.724Z,98363.48
2018-07-23T22:57:19.024Z,98357.47
2018-07-23T22:59:47.449Z,98358.77
2018-07-23T23:02:15.719Z,98362.41
2018-07-23T23:04:44.003Z,98362.78
2018-07-23T23:07:12.289Z,98355.78
2018-07-23T23:09:40.729Z,98351.92
2018-07-23T23:12:09.046Z,98351.52
2018-07-23T23:14:37.281Z,98351.88
2018-07-23T23:17:05.586Z,98355.90
2018-07-23T23:19:33.850Z,98354.18
2018-07-23T23:22:02.240Z,98351.62
2018-07-23T23:24:30.441Z,98347.25
2018-07-23T23:26:58.834Z,98349.17
2018-07-23T23:29:27.088Z,98349.23
2018-07-23T23:31:55.323Z,98344.80
2018-07-23T23:34:23.592Z,98344.84
2018-07-23T23:36:51.913Z,98344.80
2018-07-23T23:39:20.286Z,98346.13
2018-07-23T23:41:48.608Z,98345.38
2018-07-23T23:44:16.840Z,98349.81
2018-07-23T23:46:45.130Z,98342.71
2018-07-23T23:49:13.390Z,98346.84
2018-07-23T23:51:41.662Z,98341.31
2018-07-23T23:54:10.001Z,98344.32
2018-07-23T23:56:38.270Z,98339.55
2018-07-23T23:59:06.571Z,98338.48
